Wetterstation Vordersexau
Wetterdaten: Woche 23.01.12 - 29.01.12 (KW4)
Datum Zeit Temp. A. Feuchte A. Luftdruck Regen Wind Richtung Taupunkt Windchill Windben
23.01.2012 00:00 6,1 C 86 % 1016,0 hPa 0,0 l/m 20,1 km/h W-NW 3,9 C -1,8 C 11,2 km/h
23.01.2012 01:00 5,5 C 86 % 1016,2 hPa 0,0 l/m 22,7 km/h NW 3,3 C -3,5 C 12,6 km/h
23.01.2012 02:00 5,9 C 86 % 1016,3 hPa 0,0 l/m 2,6 km/h N-NW 3,7 C 5,9 C 1,4 km/h
23.01.2012 03:00 5,8 C 87 % 1016,0 hPa 0,0 l/m 0,0 km/h NO 3,8 C 5,8 C 0,0 km/h
23.01.2012 04:00 5,8 C 87 % 1016,3 hPa 0,0 l/m 0,0 km/h N 3,8 C 5,8 C 0,0 km/h
23.01.2012 05:00 5,3 C 87 % 1016,3 hPa 0,0 l/m 0,0 km/h O-NO 3,3 C 5,3 C 0,0 km/h
23.01.2012 06:00 5,5 C 86 % 1016,1 hPa 0,0 l/m 0,0 km/h NW 3,3 C 5,5 C 0,0 km/h
23.01.2012 07:00 5,3 C 87 % 1016,2 hPa 0,0 l/m 0,0 km/h NO 3,3 C 5,3 C 0,0 km/h
23.01.2012 08:00 5,8 C 86 % 1016,7 hPa 0,0 l/m 0,0 km/h NW 3,6 C 5,8 C 0,0 km/h
23.01.2012 09:00 5,8 C 86 % 1016,8 hPa 0,4 l/m 7,1 km/h W-NW 3,6 C 5,2 C 4,0 km/h
23.01.2012 10:00 6,1 C 86 % 1016,6 hPa 0,0 l/m 9,7 km/h NW 3,9 C 3,5 C 5,4 km/h
23.01.2012 11:00 7,1 C 86 % 1016,6 hPa 0,0 l/m 5,2 km/h W-NW 4,9 C 7,1 C 2,9 km/h
23.01.2012 12:00 6,8 C 86 % 1016,7 hPa 0,4 l/m 8,4 km/h NW 4,6 C 5,2 C 4,7 km/h
23.01.2012 13:00 6,9 C 86 % 1016,5 hPa 0,0 l/m 1,9 km/h W 4,7 C 6,9 C 1,1 km/h
23.01.2012 14:00 7,4 C 86 % 1016,1 hPa 0,0 l/m 0,0 km/h N-NW 5,2 C 7,4 C 0,0 km/h
23.01.2012 15:00 7,4 C 83 % 1016,0 hPa 0,0 l/m 22,7 km/h N 4,7 C -1,0 C 12,6 km/h
23.01.2012 16:00 6,5 C 84 % 1016,1 hPa 0,0 l/m 0,0 km/h N-NW 4,0 C 6,5 C 0,0 km/h
23.01.2012 17:00 6,3 C 83 % 1016,3 hPa 0,0 l/m 2,6 km/h N 3,6 C 6,3 C 1,4 km/h
23.01.2012 18:00 5,5 C 84 % 1016,4 hPa 0,0 l/m 0,0 km/h N 3,0 C 5,5 C 0,0 km/h
23.01.2012 19:00 5,2 C 86 % 1016,6 hPa 0,0 l/m 0,0 km/h N-NO 3,1 C 5,2 C 0,0 km/h
23.01.2012 20:00 5,3 C 86 % 1016,7 hPa 0,0 l/m 0,0 km/h N-NO 3,2 C 5,3 C 0,0 km/h
23.01.2012 21:00 4,9 C 87 % 1016,7 hPa 0,0 l/m 4,5 km/h N-NO 2,9 C 4,9 C 2,5 km/h
23.01.2012 22:00 4,2 C 87 % 1016,7 hPa 0,4 l/m 0,0 km/h S-SO 2,2 C 4,2 C 0,0 km/h
23.01.2012 23:00 4,1 C 86 % 1016,7 hPa 0,0 l/m 0,0 km/h S-SO 2,0 C 4,1 C 0,0 km/h
24.01.2012 00:00 3,8 C 86 % 1016,9 hPa 0,0 l/m 0,0 km/h S-SO 1,7 C 3,8 C 0,0 km/h
24.01.2012 01:00 4,1 C 85 % 1016,7 hPa 0,0 l/m 0,0 km/h W-NW 1,8 C 4,1 C 0,0 km/h
24.01.2012 02:00 4,3 C 85 % 1016,9 hPa 0,0 l/m 9,7 km/h N 2,0 C 1,5 C 5,4 km/h
24.01.2012 03:00 3,2 C 87 % 1017,8 hPa 0,4 l/m 0,0 km/h O-NO 1,2 C 3,2 C 0,0 km/h
24.01.2012 04:00 2,9 C 86 % 1018,2 hPa 1,1 l/m 0,0 km/h S 0,8 C 2,9 C 0,0 km/h
24.01.2012 05:00 1,3 C 87 % 1018,5 hPa 0,0 l/m 0,0 km/h O -0,6 C 1,3 C 0,0 km/h
24.01.2012 06:00 1,4 C 85 % 1018,9 hPa 0,0 l/m 0,0 km/h O -0,8 C 1,4 C 0,0 km/h
24.01.2012 07:00 1,9 C 85 % 1019,3 hPa 0,0 l/m 0,0 km/h SO -0,3 C 1,9 C 0,0 km/h
24.01.2012 08:00 1,5 C 84 % 1019,5 hPa 0,0 l/m 0,0 km/h O-SO -0,9 C 1,5 C 0,0 km/h
24.01.2012 09:00 2,4 C 83 % 1020,1 hPa 0,0 l/m 0,0 km/h O-SO -0,2 C 2,4 C 0,0 km/h
24.01.2012 10:00 4,6 C 82 % 1020,7 hPa 0,0 l/m 0,0 km/h NW 1,8 C 4,6 C 0,0 km/h
24.01.2012 11:00 9,6 C 79 % 1021,1 hPa 0,0 l/m 0,0 km/h W-NW 6,1 C 9,6 C 0,0 km/h
24.01.2012 12:00 8,9 C 76 % 1020,8 hPa 0,0 l/m 2,6 km/h W-NW 4,9 C 8,9 C 1,4 km/h
24.01.2012 13:00 9,5 C 68 % 1020,3 hPa 0,0 l/m 19,4 km/h W-NW 3,9 C 2,8 C 10,8 km/h
24.01.2012 14:00 8,5 C 68 % 1020,2 hPa 0,0 l/m 0,0 km/h NW 2,9 C 8,5 C 0,0 km/h
24.01.2012 15:00 7,3 C 69 % 1020,0 hPa 0,0 l/m 0,0 km/h NW 2,0 C 7,3 C 0,0 km/h
24.01.2012 16:00 5,8 C 73 % 1019,7 hPa 0,0 l/m 0,0 km/h SO 1,3 C 5,8 C 0,0 km/h
24.01.2012 17:00 4,4 C 80 % 1019,9 hPa 0,0 l/m 0,0 km/h SO 1,3 C 4,4 C 0,0 km/h
24.01.2012 18:00 3,3 C 83 % 1019,9 hPa 0,0 l/m 0,0 km/h O-SO 0,7 C 3,3 C 0,0 km/h
24.01.2012 19:00 3,1 C 85 % 1020,1 hPa 0,0 l/m 0,0 km/h NO 0,8 C 3,1 C 0,0 km/h
24.01.2012 20:00 3,1 C 85 % 1020,6 hPa 0,0 l/m 9,7 km/h S-SO 0,8 C 0,2 C 5,4 km/h
24.01.2012 21:00 2,9 C 86 % 1020,3 hPa 0,0 l/m 0,0 km/h SO 0,8 C 2,9 C 0,0 km/h
24.01.2012 22:00 2,9 C 86 % 1020,5 hPa 0,0 l/m 0,0 km/h O-SO 0,8 C 2,9 C 0,0 km/h
24.01.2012 23:00 2,4 C 86 % 1020,7 hPa 0,0 l/m 0,0 km/h SO 0,3 C 2,4 C 0,0 km/h
25.01.2012 00:00 2,1 C 87 % 1020,5 hPa 0,0 l/m 0,0 km/h SO 0,2 C 2,1 C 0,0 km/h
25.01.2012 01:00 1,8 C 87 % 1020,1 hPa 0,0 l/m 0,0 km/h S-SO -0,1 C 1,8 C 0,0 km/h
25.01.2012 02:00 1,9 C 87 % 1020,0 hPa 0,0 l/m 0,0 km/h SO -0,0 C 1,9 C 0,0 km/h
25.01.2012 03:00 2,1 C 86 % 1020,0 hPa 0,0 l/m 0,0 km/h S-SO 0,0 C 2,1 C 0,0 km/h
25.01.2012 04:00 2,2 C 86 % 1019,5 hPa 0,0 l/m 0,0 km/h SO 0,1 C 2,2 C 0,0 km/h
25.01.2012 05:00 2,3 C 86 % 1019,7 hPa 0,0 l/m 0,0 km/h S-SO 0,2 C 2,3 C 0,0 km/h
25.01.2012 06:00 2,3 C 86 % 1019,5 hPa 0,0 l/m 0,0 km/h SO 0,2 C 2,3 C 0,0 km/h
25.01.2012 07:00 2,4 C 85 % 1019,7 hPa 0,0 l/m 0,0 km/h S-SO 0,1 C 2,4 C 0,0 km/h
25.01.2012 08:00 2,5 C 85 % 1019,4 hPa 0,0 l/m 0,0 km/h S-SO 0,2 C 2,5 C 0,0 km/h
25.01.2012 09:00 3,3 C 85 % 1019,7 hPa 0,0 l/m 0,0 km/h W-NW 1,0 C 3,3 C 0,0 km/h
25.01.2012 10:00 4,9 C 86 % 1019,7 hPa 0,0 l/m 0,0 km/h N-NW 2,8 C 4,9 C 0,0 km/h
25.01.2012 11:00 6,3 C 84 % 1019,4 hPa 0,0 l/m 0,0 km/h O-NO 3,8 C 6,3 C 0,0 km/h
25.01.2012 12:00 7,9 C 80 % 1018,9 hPa 0,0 l/m 3,9 km/h N 4,7 C 7,9 C 2,2 km/h
25.01.2012 13:00 8,4 C 76 % 1018,5 hPa 0,0 l/m 0,0 km/h N-NW 4,4 C 8,4 C 0,0 km/h
25.01.2012 14:00 8,0 C 76 % 1018,0 hPa 0,0 l/m 1,9 km/h N-NW 4,0 C 8,0 C 1,1 km/h
25.01.2012 15:00 7,5 C 77 % 1017,8 hPa 0,0 l/m 0,0 km/h N-NW 3,7 C 7,5 C 0,0 km/h
25.01.2012 16:00 6,4 C 80 % 1017,5 hPa 0,0 l/m 0,0 km/h N-NW 3,2 C 6,4 C 0,0 km/h
25.01.2012 17:00 5,3 C 83 % 1017,8 hPa 0,0 l/m 0,0 km/h N-NW 2,7 C 5,3 C 0,0 km/h
25.01.2012 18:00 4,6 C 84 % 1017,8 hPa 0,0 l/m 0,0 km/h N-NW 2,1 C 4,6 C 0,0 km/h
25.01.2012 19:00 4,3 C 85 % 1017,9 hPa 0,0 l/m 0,0 km/h NW 2,0 C 4,3 C 0,0 km/h
25.01.2012 20:00 3,9 C 86 % 1017,9 hPa 0,0 l/m 0,0 km/h N-NW 1,8 C 3,9 C 0,0 km/h
25.01.2012 21:00 3,4 C 87 % 1017,6 hPa 0,0 l/m 0,0 km/h S-SW 1,4 C 3,4 C 0,0 km/h
25.01.2012 22:00 2,8 C 87 % 1017,3 hPa 0,0 l/m 0,0 km/h S-SO 0,9 C 2,8 C 0,0 km/h
25.01.2012 23:00 2,9 C 86 % 1017,1 hPa 0,0 l/m 0,0 km/h S-SO 0,8 C 2,9 C 0,0 km/h
26.01.2012 00:00 2,8 C 86 % 1017,2 hPa 0,0 l/m 0,0 km/h O 0,7 C 2,8 C 0,0 km/h
26.01.2012 01:00 2,9 C 86 % 1016,7 hPa 0,0 l/m 0,0 km/h S-SO 0,8 C 2,9 C 0,0 km/h
26.01.2012 02:00 2,9 C 86 % 1016,8 hPa 0,0 l/m 0,0 km/h O 0,8 C 2,9 C 0,0 km/h
26.01.2012 03:00 3,1 C 87 % 1016,6 hPa 0,0 l/m 0,0 km/h SO 1,2 C 3,1 C 0,0 km/h
26.01.2012 04:00 3,1 C 87 % 1016,3 hPa 0,0 l/m 0,0 km/h S-SO 1,2 C 3,1 C 0,0 km/h
26.01.2012 05:00 3,1 C 87 % 1016,2 hPa 0,0 l/m 0,0 km/h S-SO 1,2 C 3,1 C 0,0 km/h
26.01.2012 06:00 3,1 C 87 % 1016,2 hPa 0,0 l/m 0,0 km/h S-SO 1,2 C 3,1 C 0,0 km/h
26.01.2012 07:00 3,1 C 87 % 1016,2 hPa 0,0 l/m 0,0 km/h N 1,2 C 3,1 C 0,0 km/h
26.01.2012 08:00 2,9 C 87 % 1016,6 hPa 0,0 l/m 0,0 km/h N-NW 1,0 C 2,9 C 0,0 km/h
26.01.2012 09:00 2,9 C 86 % 1016,4 hPa 0,0 l/m 0,0 km/h N-NO 0,8 C 2,9 C 0,0 km/h
26.01.2012 10:00 3,3 C 87 % 1016,3 hPa 0,0 l/m 0,0 km/h N-NO 1,3 C 3,3 C 0,0 km/h
26.01.2012 11:00 4,0 C 87 % 1016,3 hPa 0,0 l/m 0,0 km/h N 2,0 C 4,0 C 0,0 km/h
26.01.2012 12:00 5,2 C 86 % 1015,5 hPa 0,0 l/m 5,8 km/h NO 3,1 C 5,2 C 3,2 km/h
26.01.2012 13:00 4,8 C 85 % 1016,0 hPa 0,0 l/m 0,0 km/h N-NW 2,5 C 4,8 C 0,0 km/h
26.01.2012 14:00 4,8 C 84 % 1015,8 hPa 0,0 l/m 4,5 km/h O 2,3 C 4,8 C 2,5 km/h
26.01.2012 15:00 4,8 C 85 % 1015,8 hPa 0,0 l/m 0,0 km/h O 2,5 C 4,8 C 0,0 km/h
26.01.2012 16:00 4,6 C 85 % 1016,0 hPa 0,0 l/m 0,0 km/h O 2,3 C 4,6 C 0,0 km/h
26.01.2012 17:00 4,2 C 85 % 1016,1 hPa 0,0 l/m 0,0 km/h SO 1,9 C 4,2 C 0,0 km/h
26.01.2012 18:00 3,9 C 86 % 1016,1 hPa 0,0 l/m 0,0 km/h SO 1,8 C 3,9 C 0,0 km/h
26.01.2012 19:00 4,2 C 87 % 1016,3 hPa 0,0 l/m 0,0 km/h O 2,2 C 4,2 C 0,0 km/h
26.01.2012 20:00 4,2 C 87 % 1016,3 hPa 0,0 l/m 0,0 km/h NO 2,2 C 4,2 C 0,0 km/h
26.01.2012 21:00 4,0 C 87 % 1016,4 hPa 0,0 l/m 0,0 km/h NO 2,0 C 4,0 C 0,0 km/h
26.01.2012 22:00 3,9 C 87 % 1016,7 hPa 0,4 l/m 0,0 km/h O-SO 1,9 C 3,9 C 0,0 km/h
26.01.2012 23:00 3,9 C 87 % 1017,1 hPa 0,0 l/m 0,0 km/h S-SO 1,9 C 3,9 C 0,0 km/h
27.01.2012 00:00 3,9 C 86 % 1017,3 hPa 0,4 l/m 0,0 km/h S-SO 1,8 C 3,9 C 0,0 km/h
27.01.2012 01:00 3,9 C 85 % 1017,2 hPa 0,4 l/m 0,0 km/h S-SO 1,6 C 3,9 C 0,0 km/h
27.01.2012 02:00 4,2 C 85 % 1017,4 hPa 0,0 l/m 0,0 km/h S-SO 1,9 C 4,2 C 0,0 km/h
27.01.2012 03:00 4,2 C 85 % 1017,7 hPa 0,0 l/m 0,0 km/h S-SO 1,9 C 4,2 C 0,0 km/h
27.01.2012 04:00 3,9 C 85 % 1017,8 hPa 0,0 l/m 0,0 km/h S-SO 1,6 C 3,9 C 0,0 km/h
27.01.2012 05:00 4,2 C 85 % 1018,2 hPa 0,0 l/m 0,0 km/h S-SO 1,9 C 4,2 C 0,0 km/h
27.01.2012 06:00 4,4 C 84 % 1018,6 hPa 0,0 l/m 0,0 km/h N 1,9 C 4,4 C 0,0 km/h
27.01.2012 07:00 4,6 C 83 % 1019,6 hPa 0,4 l/m 0,0 km/h N-NO 2,0 C 4,6 C 0,0 km/h
27.01.2012 08:00 4,4 C 83 % 1020,2 hPa 0,4 l/m 0,0 km/h N-NO 1,8 C 4,4 C 0,0 km/h
27.01.2012 09:00 5,0 C 82 % 1020,6 hPa 0,0 l/m 0,0 km/h SO 2,2 C 5,0 C 0,0 km/h
27.01.2012 10:00 5,8 C 82 % 1021,1 hPa 0,0 l/m 0,0 km/h SO 3,0 C 5,8 C 0,0 km/h
27.01.2012 11:00 6,1 C 82 % 1021,7 hPa 0,0 l/m 0,0 km/h N-NO 3,3 C 6,1 C 0,0 km/h
27.01.2012 12:00 7,8 C 86 % 1021,5 hPa 0,0 l/m 0,0 km/h N 5,6 C 7,8 C 0,0 km/h
27.01.2012 13:00 6,7 C 87 % 1021,7 hPa 0,0 l/m 0,0 km/h N 4,7 C 6,7 C 0,0 km/h
27.01.2012 14:00 6,5 C 87 % 1021,6 hPa 0,0 l/m 0,0 km/h N-NO 4,5 C 6,5 C 0,0 km/h
27.01.2012 15:00 6,1 C 87 % 1021,8 hPa 0,0 l/m 0,0 km/h N 4,1 C 6,1 C 0,0 km/h
27.01.2012 16:00 5,6 C 86 % 1022,0 hPa 0,0 l/m 0,0 km/h N 3,4 C 5,6 C 0,0 km/h
27.01.2012 17:00 4,9 C 87 % 1022,2 hPa 0,0 l/m 0,0 km/h S-SO 2,9 C 4,9 C 0,0 km/h
27.01.2012 18:00 4,3 C 86 % 1022,7 hPa 0,0 l/m 0,0 km/h S 2,2 C 4,3 C 0,0 km/h
27.01.2012 19:00 4,1 C 86 % 1023,2 hPa 0,4 l/m 0,0 km/h S 2,0 C 4,1 C 0,0 km/h
27.01.2012 20:00 3,8 C 85 % 1023,4 hPa 0,0 l/m 0,0 km/h S-SO 1,5 C 3,8 C 0,0 km/h
27.01.2012 21:00 3,6 C 85 % 1023,3 hPa 0,4 l/m 0,0 km/h S-SO 1,3 C 3,6 C 0,0 km/h
27.01.2012 22:00 3,1 C 85 % 1023,2 hPa 0,0 l/m 0,0 km/h O-NO 0,8 C 3,1 C 0,0 km/h
27.01.2012 23:00 2,6 C 85 % 1023,6 hPa 0,0 l/m 0,0 km/h O-NO 0,3 C 2,6 C 0,0 km/h
28.01.2012 00:00 2,4 C 84 % 1023,7 hPa 0,0 l/m 0,0 km/h O-NO -0,0 C 2,4 C 0,0 km/h
28.01.2012 01:00 2,3 C 83 % 1023,7 hPa 0,0 l/m 0,0 km/h SO -0,3 C 2,3 C 0,0 km/h
28.01.2012 02:00 2,2 C 83 % 1023,6 hPa 0,0 l/m 0,0 km/h SO -0,4 C 2,2 C 0,0 km/h
28.01.2012 03:00 2,1 C 83 % 1023,5 hPa 0,0 l/m 0,0 km/h SO -0,5 C 2,1 C 0,0 km/h
28.01.2012 04:00 2,2 C 83 % 1023,3 hPa 0,0 l/m 0,0 km/h SO -0,4 C 2,2 C 0,0 km/h
28.01.2012 05:00 1,9 C 82 % 1023,4 hPa 0,0 l/m 0,0 km/h SO -0,8 C 1,9 C 0,0 km/h
28.01.2012 06:00 2,1 C 82 % 1023,6 hPa 0,0 l/m 0,0 km/h SO -0,6 C 2,1 C 0,0 km/h
28.01.2012 07:00 2,1 C 82 % 1023,6 hPa 0,0 l/m 0,0 km/h SO -0,6 C 2,1 C 0,0 km/h
28.01.2012 08:00 2,2 C 81 % 1023,7 hPa 0,0 l/m 0,0 km/h S -0,7 C 2,2 C 0,0 km/h
28.01.2012 09:00 3,2 C 80 % 1024,0 hPa 0,0 l/m 4,5 km/h S-SO 0,1 C 3,2 C 2,5 km/h
28.01.2012 10:00 4,0 C 81 % 1024,1 hPa 0,0 l/m 0,0 km/h O-NO 1,0 C 4,0 C 0,0 km/h
28.01.2012 11:00 4,1 C 82 % 1024,0 hPa 0,4 l/m 0,0 km/h NW 1,3 C 4,1 C 0,0 km/h
28.01.2012 12:00 5,3 C 87 % 1023,7 hPa 0,0 l/m 0,0 km/h N-NO 3,3 C 5,3 C 0,0 km/h
28.01.2012 13:00 5,2 C 87 % 1023,1 hPa 0,0 l/m 0,0 km/h W 3,2 C 5,2 C 0,0 km/h
28.01.2012 14:00 5,4 C 86 % 1022,7 hPa 0,0 l/m 0,0 km/h N 3,3 C 5,4 C 0,0 km/h
28.01.2012 15:00 5,1 C 86 % 1022,6 hPa 0,0 l/m 0,0 km/h N-NO 3,0 C 5,1 C 0,0 km/h
28.01.2012 16:00 4,9 C 87 % 1022,3 hPa 0,0 l/m 0,0 km/h O-NO 2,9 C 4,9 C 0,0 km/h
28.01.2012 17:00 3,4 C 87 % 1022,5 hPa 0,0 l/m 0,0 km/h N-NO 1,4 C 3,4 C 0,0 km/h
28.01.2012 18:00 2,9 C 87 % 1022,5 hPa 0,0 l/m 0,0 km/h N-NO 1,0 C 2,9 C 0,0 km/h
28.01.2012 19:00 2,4 C 87 % 1022,6 hPa 0,0 l/m 0,0 km/h N-NO 0,5 C 2,4 C 0,0 km/h
28.01.2012 20:00 1,9 C 87 % 1022,5 hPa 0,0 l/m 0,0 km/h N-NO -0,0 C 1,9 C 0,0 km/h
28.01.2012 21:00 1,2 C 87 % 1022,4 hPa 0,0 l/m 0,0 km/h O-NO -0,7 C 1,2 C 0,0 km/h
28.01.2012 22:00 1,3 C 87 % 1022,2 hPa 0,0 l/m 0,0 km/h O-SO -0,6 C 1,3 C 0,0 km/h
28.01.2012 23:00 1,4 C 86 % 1022,2 hPa 0,0 l/m 0,0 km/h NO -0,7 C 1,4 C 0,0 km/h
29.01.2012 00:00 2,6 C 87 % 1021,8 hPa 0,0 l/m 0,0 km/h NO 0,7 C 2,6 C 0,0 km/h
29.01.2012 01:00 2,6 C 86 % 1021,4 hPa 0,0 l/m 0,0 km/h N-NO 0,5 C 2,6 C 0,0 km/h
29.01.2012 02:00 2,4 C 85 % 1021,0 hPa 0,0 l/m 0,0 km/h N 0,1 C 2,4 C 0,0 km/h
29.01.2012 03:00 2,4 C 84 % 1020,8 hPa 0,0 l/m 1,9 km/h N-NO -0,0 C 2,4 C 1,1 km/h
29.01.2012 04:00 2,1 C 83 % 1020,5 hPa 0,0 l/m 0,0 km/h N-NO -0,5 C 2,1 C 0,0 km/h
29.01.2012 05:00 1,8 C 83 % 1020,4 hPa 0,0 l/m 18,1 km/h O-NO -0,8 C -6,4 C 10,1 km/h
29.01.2012 06:00 1,8 C 81 % 1020,6 hPa 0,0 l/m 0,0 km/h N -1,1 C 1,8 C 0,0 km/h
29.01.2012 07:00 1,5 C 81 % 1020,7 hPa 0,0 l/m 0,0 km/h N-NO -1,4 C 1,5 C 0,0 km/h
29.01.2012 08:00 1,4 C 81 % 1020,9 hPa 0,0 l/m 0,0 km/h N -1,5 C 1,4 C 0,0 km/h
29.01.2012 09:00 1,0 C 84 % 1020,8 hPa 0,0 l/m 0,0 km/h N-NO -1,4 C 1,0 C 0,0 km/h
29.01.2012 10:00 1,1 C 86 % 1020,9 hPa 0,0 l/m 0,0 km/h N -1,0 C 1,1 C 0,0 km/h
29.01.2012 11:00 1,5 C 86 % 1020,9 hPa 0,4 l/m 0,0 km/h NW -0,6 C 1,5 C 0,0 km/h
29.01.2012 12:00 1,9 C 86 % 1020,5 hPa 0,0 l/m 0,0 km/h N-NO -0,2 C 1,9 C 0,0 km/h
29.01.2012 13:00 2,4 C 84 % 1020,2 hPa 0,0 l/m 0,0 km/h N -0,0 C 2,4 C 0,0 km/h
29.01.2012 14:00 2,3 C 83 % 1019,9 hPa 0,0 l/m 1,9 km/h N-NO -0,3 C 2,3 C 1,1 km/h
29.01.2012 15:00 1,9 C 83 % 1020,2 hPa 0,0 l/m 0,0 km/h O-NO -0,7 C 1,9 C 0,0 km/h
29.01.2012 16:00 1,6 C 83 % 1020,6 hPa 0,0 l/m 0,0 km/h N-NO -1,0 C 1,6 C 0,0 km/h
29.01.2012 17:00 1,2 C 84 % 1020,8 hPa 0,0 l/m 0,0 km/h NO -1,2 C 1,2 C 0,0 km/h
29.01.2012 18:00 0,9 C 84 % 1021,0 hPa 0,0 l/m 0,0 km/h SW -1,5 C 0,9 C 0,0 km/h
29.01.2012 19:00 0,6 C 86 % 1021,0 hPa 0,0 l/m 0,0 km/h W -1,5 C 0,6 C 0,0 km/h
29.01.2012 20:00 0,5 C 86 % 1021,2 hPa 0,0 l/m 0,0 km/h W -1,6 C 0,5 C 0,0 km/h
29.01.2012 21:00 0,0 C 87 % 1021,2 hPa 0,0 l/m 0,0 km/h W -1,9 C 0,0 C 0,0 km/h
29.01.2012 22:00 -0,1 C 87 % 1021,0 hPa 0,0 l/m 0,0 km/h W-SW -2,0 C -0,1 C 0,0 km/h
29.01.2012 23:00 -0,3 C 87 % 1021,1 hPa 0,0 l/m 0,0 km/h W-SW -2,2 C -0,3 C 0,0 km/h
Min-Datum _ 29.01.12 24.01.12 26.01.12 - 23.01.12 - 29.01.12 29.01.12 23.01.12
_ Min-Zeit 23:30 13:30 12:30 - 03:30 - 23:30 05:30 03:30
Minimum _ -0,3 C 68 % 1015,5 hPa - 0,0 km/h - -2,2 C -6,4 C 0,0 km/h
Max-Datum _ 24.01.12 23.01.12 28.01.12 24.01.12 23.01.12 - 24.01.12 24.01.12 23.01.12
_ Max-Zeit 11:30 03:30 10:30 04:30 01:30 - 11:30 11:30 01:30
Maximum _ 9,6 C 87 % 1024,1 hPa 1,1 l/m 22,7 km/h
NW
- 6,1 C 9,6 C 12,6 km/h
NW
Durchschnitt _ 3,9 C 85 % 1019,4 hPa #5,7 l/m 1,1 km/h S-SO 1,5 C 3,6 C 0,6 km/h
www.sexauwetter.de